15分钟前
罗盘
风向 的 风向 310° Starbuck Airport 13/31
风: 9 千吨, 3 beaufort
0 500 1.500 3.000 5.000 8.000 10.000
BKN 21.000 ft
METAR CYWG 301300Z 31009KT 15SM BKN210 M07/M10 A3008 RMK CI5 SLP206

METAR定义 | 嵌入

24小时趋势

航班类别VFRLIFR
温度-1 °C-7 °C
风速15 千吨0 千吨
能见度24 公里0 米

更多历史数据

下载我们的安卓应用程序

从你的主屏幕上轻松地访问你的航空天气。
只需一次付费,您就可以获得无广告的体验。

您会帮助我们保持Metar-Taf.com正常运行吗?
您的贡献有助于网站的进一步开发并支付费用。

没有更多广告

您是捐款5美元还是更多?然后,我们将永远不会再向您展示广告,这是我们永恒的感谢!
捐赠前先登录

METAR Starbuck Airport

Starbuck Airport是Starbuck,加拿大中的小机场。 机场有{a,plural,=1{一条跑道} other{#跑道}}: 8/26, 13/31 和 17/35

Starbuck Airport最近未发布观察结果。相反,我们向您显示38 km的报告Winnipeg / James Armstrong Richardson International Airport。 该报告是针对2021年11月30日 07:00, 当地时间进行的。

机场观察

风来自北西 (310°)方向,速度为9 千吨。

可见度为24 公里。

有碎云在21.000 ft的高度。 破损或更高的上限为21.000 ft。

温度为-7 °C,阵风为-16 °C。 露点为-10 °C,相对湿度为79%。 海平面上的气压为1019 压力 (QNH)。

评论

  • 海平面压力为1020,6 压力 (SLP206)
  • CI5

白天

今天,太阳从08:05升起,在16:33降落。 这适用于Starbuck Airport,世界夏令时可能有所不同。 当地时间与世界标准时间之间的时差为-6 小时。 当前,没有夏令时有效。

公司介绍

我们没有关于这个机场的公司信息。

体会

到Vliegles.nl去找飞行课程,跳伞和其他飞行体验。 浏览页面,了解Starbuck Airport附近所有可用的活动。 你也可以使用搜索功能来寻找你所在地附近的特定飞行课程、跳伞或其他飞行体验。

您是否要在网站上Starbuck Airport飞行的天气? 阅读更多   自由!